createdAt,value
2018-06-04T00:00:15.649Z,14.84
2018-06-04T00:02:44.673Z,14.83
2018-06-04T00:05:14.289Z,14.97
2018-06-04T00:07:43.891Z,14.82
2018-06-04T00:10:12.858Z,14.44
2018-06-04T00:12:42.657Z,14.63
2018-06-04T00:15:11.623Z,14.62
2018-06-04T00:17:40.653Z,14.66
2018-06-04T00:20:09.950Z,14.69
2018-06-04T00:22:39.640Z,14.71
2018-06-04T00:25:09.497Z,14.50
2018-06-04T00:27:40.514Z,14.54
2018-06-04T00:30:09.548Z,14.59
2018-06-04T00:32:38.658Z,14.55
2018-06-04T00:35:07.673Z,14.44
2018-06-04T00:37:36.888Z,14.39
2018-06-04T00:40:06.371Z,14.42
2018-06-04T00:42:36.152Z,14.36
2018-06-04T00:45:05.156Z,14.25
2018-06-04T00:47:34.804Z,14.28
2018-06-04T00:50:04.683Z,14.13
2018-06-04T00:52:33.712Z,14.10
2018-06-04T00:55:02.646Z,14.12
2018-06-04T00:57:31.728Z,14.19
2018-06-04T01:00:00.759Z,14.12
2018-06-04T01:02:29.905Z,14.17
2018-06-04T01:04:59.435Z,14.08
2018-06-04T01:07:29.455Z,14.04
2018-06-04T01:09:58.430Z,14.03
2018-06-04T01:12:27.513Z,13.95
2018-06-04T01:14:56.522Z,14.01
2018-06-04T01:17:27.640Z,13.98
2018-06-04T01:19:56.605Z,13.93
2018-06-04T01:22:25.835Z,13.93
2018-06-04T01:24:54.830Z,13.93
2018-06-04T01:27:24.508Z,13.92
2018-06-04T01:29:54.163Z,13.81
2018-06-04T01:32:23.287Z,13.86
2018-06-04T01:34:52.403Z,13.78
2018-06-04T01:37:22.703Z,13.77
2018-06-04T01:39:51.974Z,13.69
2018-06-04T01:42:20.929Z,13.64
2018-06-04T01:44:53.672Z,13.77
2018-06-04T01:47:22.671Z,13.69
2018-06-04T01:49:51.662Z,13.59
2018-06-04T01:52:21.829Z,13.60
2018-06-04T01:54:50.778Z,13.62
2018-06-04T01:57:20.762Z,13.52
2018-06-04T01:59:50.071Z,13.65
2018-06-04T02:02:19.715Z,13.56
2018-06-04T02:04:49.664Z,13.54
2018-06-04T02:07:18.723Z,13.52
2018-06-04T02:09:48.375Z,13.46
2018-06-04T02:12:17.407Z,13.40
2018-06-04T02:14:46.396Z,13.48
2018-06-04T02:17:15.530Z,13.38
2018-06-04T02:19:46.405Z,13.29
2018-06-04T02:22:16.833Z,13.19
2018-06-04T02:24:45.791Z,13.14
2018-06-04T02:27:14.850Z,13.24
2018-06-04T02:29:43.931Z,13.29
2018-06-04T02:32:12.978Z,13.30
2018-06-04T02:34:42.813Z,13.29
2018-06-04T02:37:12.381Z,13.26
2018-06-04T02:39:41.442Z,13.10
2018-06-04T02:42:10.470Z,13.10
2018-06-04T02:44:39.445Z,13.19
2018-06-04T02:47:08.513Z,13.24
2018-06-04T02:49:37.643Z,13.06
2018-06-04T02:52:07.287Z,12.82
2018-06-04T02:54:36.314Z,12.96
2018-06-04T02:57:05.385Z,13.06
2018-06-04T02:59:34.371Z,13.12
2018-06-04T03:02:03.637Z,13.00
2018-06-04T03:04:33.032Z,13.04
2018-06-04T03:07:02.060Z,12.97
2018-06-04T03:09:31.090Z,12.95
2018-06-04T03:12:00.474Z,13.03
2018-06-04T03:14:29.431Z,12.89
2018-06-04T03:16:58.570Z,12.98
2018-06-04T03:19:27.587Z,12.99
2018-06-04T03:21:56.613Z,12.96
2018-06-04T03:24:25.686Z,12.81
2018-06-04T03:26:57.664Z,12.81
2018-06-04T03:29:27.802Z,12.93
2018-06-04T03:31:56.885Z,12.97
2018-06-04T03:34:29.023Z,12.96
2018-06-04T03:36:58.016Z,12.90
2018-06-04T03:39:27.121Z,12.85
2018-06-04T03:41:56.515Z,12.94
2018-06-04T03:44:25.840Z,12.74
2018-06-04T03:46:54.898Z,12.87
2018-06-04T03:49:24.003Z,12.90
2018-06-04T03:51:53.074Z,12.89
2018-06-04T03:54:22.811Z,12.89
2018-06-04T03:56:52.033Z,12.82
2018-06-04T03:59:22.077Z,12.84
2018-06-04T04:01:51.147Z,12.81
2018-06-04T04:04:20.333Z,12.88
2018-06-04T04:06:49.377Z,12.80
2018-06-04T04:09:18.432Z,12.86
2018-06-04T04:11:48.202Z,12.91
2018-06-04T04:14:17.307Z,12.82
2018-06-04T04:16:46.386Z,12.88
2018-06-04T04:19:15.528Z,12.83
2018-06-04T04:21:45.730Z,12.94
2018-06-04T04:24:15.935Z,12.93
2018-06-04T04:26:46.458Z,13.03
2018-06-04T04:29:15.567Z,12.88
2018-06-04T04:31:44.908Z,12.90
2018-06-04T04:34:14.325Z,12.98
2018-06-04T04:36:43.372Z,12.92
2018-06-04T04:39:12.459Z,13.02
2018-06-04T04:41:41.551Z,12.98
2018-06-04T04:44:10.614Z,13.23
2018-06-04T04:46:40.525Z,13.57
2018-06-04T04:49:10.802Z,13.77
2018-06-04T04:51:39.955Z,14.01
2018-06-04T04:54:09.066Z,14.20
2018-06-04T04:56:38.146Z,14.56
2018-06-04T04:59:08.109Z,14.78
2018-06-04T05:01:37.129Z,15.07
2018-06-04T05:04:06.192Z,15.22
2018-06-04T05:06:36.379Z,15.36
2018-06-04T05:09:09.719Z,15.46
2018-06-04T05:11:39.638Z,15.63
2018-06-04T05:14:08.695Z,15.78
2018-06-04T05:16:40.385Z,15.98
2018-06-04T05:19:09.583Z,16.27
2018-06-04T05:21:39.433Z,16.42
2018-06-04T05:24:08.412Z,16.65
2018-06-04T05:26:37.876Z,16.28
2018-06-04T05:29:07.031Z,16.32
2018-06-04T05:31:36.167Z,16.18
2018-06-04T05:34:05.506Z,16.19
2018-06-04T05:36:35.264Z,16.65
2018-06-04T05:39:06.123Z,16.98
2018-06-04T05:41:35.172Z,16.59
2018-06-04T05:44:05.109Z,16.59
2018-06-04T05:46:34.195Z,17.21
2018-06-04T05:49:04.356Z,17.08
2018-06-04T05:51:34.234Z,17.19
2018-06-04T05:54:03.267Z,17.03
2018-06-04T05:56:32.459Z,17.09
2018-06-04T05:59:01.422Z,17.31
2018-06-04T06:01:30.676Z,16.93
2018-06-04T06:03:59.776Z,17.76
2018-06-04T06:06:30.360Z,18.02
2018-06-04T06:09:00.493Z,17.81
2018-06-04T06:11:30.428Z,18.31
2018-06-04T06:13:59.635Z,18.15
2018-06-04T06:16:28.771Z,18.24
2018-06-04T06:18:57.842Z,18.12
2018-06-04T06:21:27.559Z,18.57
2018-06-04T06:23:57.550Z,18.75
2018-06-04T06:26:26.748Z,18.84
2018-06-04T06:28:56.938Z,18.92
2018-06-04T06:31:26.016Z,18.52
2018-06-04T06:33:55.988Z,18.84
2018-06-04T06:36:25.255Z,19.12
2018-06-04T06:38:54.299Z,19.16
2018-06-04T06:41:23.323Z,19.47
2018-06-04T06:43:52.502Z,19.43
2018-06-04T06:46:22.775Z,19.79
2018-06-04T06:48:51.892Z,19.74
2018-06-04T06:51:20.943Z,19.93
2018-06-04T06:53:49.981Z,19.79
2018-06-04T06:56:19.028Z,20.81
2018-06-04T06:58:48.976Z,21.62
2018-06-04T07:01:21.483Z,20.95
2018-06-04T07:03:50.767Z,20.76
2018-06-04T07:06:19.795Z,21.07
2018-06-04T07:08:49.215Z,21.00
2018-06-04T07:11:18.574Z,21.23
2018-06-04T07:13:48.281Z,20.96
2018-06-04T07:16:18.421Z,20.49
2018-06-04T07:18:49.110Z,21.13
2018-06-04T07:21:18.640Z,21.63
2018-06-04T07:23:49.782Z,20.81
2018-06-04T07:26:19.841Z,21.26
2018-06-04T07:28:48.811Z,21.14
2018-06-04T07:31:18.178Z,21.46
2018-06-04T07:33:48.210Z,21.55
2018-06-04T07:36:17.666Z,21.88
2018-06-04T07:38:47.487Z,21.50
2018-06-04T07:41:17.075Z,21.64
2018-06-04T07:43:46.154Z,22.29
2018-06-04T07:46:15.137Z,21.60
2018-06-04T07:48:44.249Z,21.94
2018-06-04T07:51:14.135Z,21.60
2018-06-04T07:53:43.827Z,22.03
2018-06-04T07:56:13.498Z,22.52
2018-06-04T07:58:43.189Z,22.43
2018-06-04T08:01:12.707Z,22.12
2018-06-04T08:03:41.820Z,21.94
2018-06-04T08:06:11.064Z,22.35
2018-06-04T08:08:40.698Z,22.92
2018-06-04T08:11:09.825Z,23.34
2018-06-04T08:13:39.702Z,23.85
2018-06-04T08:16:09.721Z,24.02
2018-06-04T08:18:39.739Z,24.00
2018-06-04T08:21:11.904Z,23.05
2018-06-04T08:23:42.763Z,23.91
2018-06-04T08:26:12.327Z,24.33
2018-06-04T08:28:41.475Z,23.61
2018-06-04T08:31:10.644Z,23.63
2018-06-04T08:33:39.648Z,23.80
2018-06-04T08:36:09.030Z,24.23
2018-06-04T08:38:38.163Z,24.41
2018-06-04T08:41:08.358Z,24.15
2018-06-04T08:43:37.390Z,24.20
2018-06-04T08:46:06.406Z,24.04
2018-06-04T08:48:35.409Z,24.34
2018-06-04T08:51:04.697Z,24.77
2018-06-04T08:53:33.680Z,24.49
2018-06-04T08:56:02.768Z,24.67
2018-06-04T08:58:32.283Z,25.08
2018-06-04T09:01:01.453Z,24.76
2018-06-04T09:03:31.015Z,24.76
2018-06-04T09:06:00.948Z,24.70
2018-06-04T09:08:29.987Z,24.69
2018-06-04T09:10:58.971Z,25.10
2018-06-04T09:13:28.007Z,25.09
2018-06-04T09:15:57.884Z,25.03
2018-06-04T09:18:27.085Z,24.66
2018-06-04T09:20:56.196Z,25.25
2018-06-04T09:23:25.134Z,25.35
2018-06-04T09:25:54.170Z,25.58
2018-06-04T09:28:24.818Z,25.87
2018-06-04T09:30:53.898Z,25.87
2018-06-04T09:33:22.923Z,25.95
2018-06-04T09:35:51.941Z,26.01
2018-06-04T09:38:21.023Z,26.02
2018-06-04T09:40:51.111Z,26.11
2018-06-04T09:43:20.223Z,26.14
2018-06-04T09:45:49.552Z,26.63
2018-06-04T09:48:18.540Z,26.61
2018-06-04T09:50:47.545Z,26.29
2018-06-04T09:53:16.548Z,26.35
2018-06-04T09:55:45.591Z,26.51
2018-06-04T09:58:16.407Z,26.50
2018-06-04T10:00:45.484Z,26.60
2018-06-04T10:03:15.052Z,26.77
2018-06-04T10:05:44.082Z,26.76
2018-06-04T10:08:13.217Z,27.22
2018-06-04T10:10:44.177Z,27.68
2018-06-04T10:13:13.175Z,27.38
2018-06-04T10:15:42.285Z,27.47
2018-06-04T10:18:11.385Z,27.08
2018-06-04T10:20:40.810Z,27.27
2018-06-04T10:23:11.219Z,27.50
2018-06-04T10:25:40.868Z,27.80
2018-06-04T10:28:10.163Z,28.10
2018-06-04T10:30:39.601Z,28.19
2018-06-04T10:33:08.969Z,27.84
2018-06-04T10:35:38.240Z,28.32
2018-06-04T10:38:08.453Z,27.57
2018-06-04T10:40:38.932Z,27.95
2018-06-04T10:43:08.280Z,28.14
2018-06-04T10:45:37.922Z,28.17
2018-06-04T10:48:08.011Z,28.23
2018-06-04T10:50:38.119Z,28.48
2018-06-04T10:53:07.176Z,28.31
2018-06-04T10:55:37.291Z,28.34
2018-06-04T10:58:06.292Z,28.56
2018-06-04T11:00:35.474Z,28.76
2018-06-04T11:03:05.017Z,28.64
2018-06-04T11:05:34.063Z,28.56
2018-06-04T11:08:03.087Z,28.70
2018-06-04T11:10:34.967Z,28.90
2018-06-04T11:13:04.764Z,28.59
2018-06-04T11:15:35.576Z,28.43
2018-06-04T11:18:06.603Z,28.74
2018-06-04T11:20:39.207Z,28.70
2018-06-04T11:23:09.134Z,29.08
2018-06-04T11:25:38.287Z,28.57
2018-06-04T11:28:08.511Z,29.04
2018-06-04T11:30:39.092Z,28.19
2018-06-04T11:33:08.246Z,28.43
2018-06-04T11:35:37.310Z,28.56
2018-06-04T11:38:06.384Z,29.07
2018-06-04T11:40:35.668Z,29.34
2018-06-04T11:43:04.720Z,29.71
2018-06-04T11:45:33.796Z,29.82
2018-06-04T11:48:02.816Z,29.85
2018-06-04T11:50:32.003Z,29.80
2018-06-04T11:53:00.974Z,29.65
2018-06-04T11:55:30.217Z,29.71
2018-06-04T11:57:59.246Z,29.40
2018-06-04T12:00:28.282Z,29.28
2018-06-04T12:02:57.499Z,29.46
2018-06-04T12:05:26.601Z,29.50
2018-06-04T12:07:57.005Z,29.49
2018-06-04T12:10:26.136Z,28.89
2018-06-04T12:12:55.298Z,28.88
2018-06-04T12:15:24.328Z,28.54
2018-06-04T12:17:53.375Z,28.32
2018-06-04T12:20:22.443Z,28.32
2018-06-04T12:22:51.626Z,28.15
2018-06-04T12:25:20.777Z,27.62
2018-06-04T12:27:49.772Z,27.91
2018-06-04T12:30:18.838Z,27.90
2018-06-04T12:32:48.752Z,28.17
2018-06-04T12:35:17.777Z,28.34
2018-06-04T12:37:46.851Z,29.01
2018-06-04T12:40:15.950Z,29.21
2018-06-04T12:42:44.956Z,29.19
2018-06-04T12:45:13.987Z,29.43
2018-06-04T12:47:43.018Z,29.01
2018-06-04T12:50:12.414Z,29.23
2018-06-04T12:52:41.434Z,29.37
2018-06-04T12:55:10.865Z,29.31
2018-06-04T12:57:39.846Z,28.59
2018-06-04T13:00:09.189Z,28.49
2018-06-04T13:02:38.289Z,28.43
2018-06-04T13:05:07.482Z,28.37
2018-06-04T13:07:36.499Z,28.13
2018-06-04T13:10:09.170Z,28.29
2018-06-04T13:12:38.489Z,28.40
2018-06-04T13:15:08.101Z,28.42
2018-06-04T13:17:37.211Z,28.43
2018-06-04T13:20:06.395Z,28.62
2018-06-04T13:22:35.564Z,28.83
2018-06-04T13:25:05.652Z,28.92
2018-06-04T13:27:34.742Z,29.13
2018-06-04T13:30:03.901Z,28.89
2018-06-04T13:32:32.985Z,28.87
2018-06-04T13:35:02.004Z,28.80
2018-06-04T13:37:31.227Z,29.05
2018-06-04T13:40:00.401Z,28.75
2018-06-04T13:42:29.606Z,28.65
2018-06-04T13:47:33.929Z,28.99
2018-06-04T13:50:03.008Z,28.84
2018-06-04T13:52:32.078Z,29.01
2018-06-04T13:55:01.126Z,28.89
2018-06-04T13:57:30.133Z,28.95
2018-06-04T13:59:59.403Z,27.72
2018-06-04T14:02:29.227Z,27.79
2018-06-04T14:04:58.283Z,27.39
2018-06-04T14:07:27.308Z,26.90
2018-06-04T14:09:56.290Z,26.39
2018-06-04T14:12:25.494Z,26.26
2018-06-04T14:14:54.537Z,26.40
2018-06-04T14:17:23.697Z,26.40
2018-06-04T14:19:52.784Z,26.17
2018-06-04T14:22:21.893Z,26.45
2018-06-04T14:24:50.951Z,26.45
2018-06-04T14:27:20.107Z,26.53
2018-06-04T14:29:49.295Z,26.59
2018-06-04T14:32:18.415Z,26.31
2018-06-04T14:34:47.541Z,26.28
2018-06-04T14:37:16.495Z,26.42
2018-06-04T14:39:45.874Z,26.07
2018-06-04T14:42:14.962Z,26.09
2018-06-04T14:44:44.015Z,26.09
2018-06-04T14:47:12.971Z,26.03
2018-06-04T14:49:42.014Z,25.85
2018-06-04T14:52:11.065Z,25.85
2018-06-04T14:54:40.293Z,26.07
2018-06-04T14:57:09.321Z,25.91
2018-06-04T14:59:44.905Z,25.95
2018-06-04T15:02:13.958Z,25.79
2018-06-04T15:04:43.312Z,25.70
2018-06-04T15:07:12.440Z,25.53
2018-06-04T15:09:42.158Z,25.32
2018-06-04T15:12:11.169Z,25.14
2018-06-04T15:14:40.268Z,25.21
2018-06-04T15:17:09.277Z,25.11
2018-06-04T15:19:38.937Z,25.15
2018-06-04T15:22:07.959Z,25.14
2018-06-04T15:24:37.138Z,25.25
2018-06-04T15:27:06.183Z,25.29
2018-06-04T15:29:35.186Z,25.29
2018-06-04T15:32:04.459Z,25.30
2018-06-04T15:34:34.205Z,25.21
2018-06-04T15:37:03.904Z,25.17
2018-06-04T15:39:33.097Z,25.07
2018-06-04T15:42:03.825Z,25.09
2018-06-04T15:44:33.216Z,24.91
2018-06-04T15:47:02.458Z,24.77
2018-06-04T15:49:31.537Z,24.69
2018-06-04T15:52:00.691Z,24.33
2018-06-04T15:54:29.815Z,24.43
2018-06-04T15:56:59.185Z,24.34
2018-06-04T15:59:28.315Z,24.19
2018-06-04T16:01:57.533Z,24.29
2018-06-04T16:04:26.602Z,24.14
2018-06-04T16:06:55.673Z,24.20
2018-06-04T16:09:24.861Z,24.30
2018-06-04T16:11:54.034Z,24.34
2018-06-04T16:14:23.152Z,24.36
2018-06-04T16:16:52.345Z,24.29
2018-06-04T16:19:21.447Z,24.38
2018-06-04T16:21:50.639Z,24.25
2018-06-04T16:24:20.027Z,24.22
2018-06-04T16:26:49.335Z,24.34
2018-06-04T16:29:18.449Z,24.48
2018-06-04T16:31:47.642Z,24.42
2018-06-04T16:34:16.766Z,24.39
2018-06-04T16:36:46.175Z,24.41
2018-06-04T16:39:15.319Z,24.22
2018-06-04T16:41:44.521Z,24.24
2018-06-04T16:44:13.983Z,24.14
2018-06-04T16:46:43.153Z,24.04
2018-06-04T16:49:12.545Z,24.09
2018-06-04T16:51:42.384Z,24.04
2018-06-04T16:54:11.730Z,23.92
2018-06-04T16:56:41.068Z,23.93
2018-06-04T16:59:10.223Z,23.91
2018-06-04T17:01:39.820Z,23.69
2018-06-04T17:04:08.969Z,23.76
2018-06-04T17:06:39.401Z,23.80
2018-06-04T17:09:08.934Z,23.87
2018-06-04T17:11:38.115Z,23.88
2018-06-04T17:14:07.195Z,23.85
2018-06-04T17:16:37.373Z,23.78
2018-06-04T17:19:07.044Z,23.56
2018-06-04T17:21:36.230Z,23.40
2018-06-04T17:24:06.169Z,23.56
2018-06-04T17:26:35.415Z,23.59
2018-06-04T17:29:04.782Z,23.54
2018-06-04T17:31:34.500Z,23.51
2018-06-04T17:34:03.882Z,23.31
2018-06-04T17:36:33.412Z,23.18
2018-06-04T17:39:02.891Z,23.30
2018-06-04T17:41:35.326Z,23.25
2018-06-04T17:44:05.009Z,23.31
2018-06-04T17:46:34.168Z,23.37
2018-06-04T17:49:03.406Z,23.18
2018-06-04T17:51:33.836Z,23.08
2018-06-04T17:54:03.008Z,23.02
2018-06-04T17:56:34.496Z,22.96
2018-06-04T17:59:03.674Z,22.92
2018-06-04T18:01:34.807Z,22.71
2018-06-04T18:04:04.297Z,22.70
2018-06-04T18:06:34.603Z,22.68
2018-06-04T18:09:05.163Z,22.58
2018-06-04T18:11:34.490Z,22.52
2018-06-04T18:14:03.772Z,22.43
2018-06-04T18:16:33.344Z,22.47
2018-06-04T18:19:03.737Z,22.30
2018-06-04T18:21:35.563Z,22.33
2018-06-04T18:24:05.005Z,22.31
2018-06-04T18:26:34.388Z,22.05
2018-06-04T18:29:03.704Z,22.06
2018-06-04T18:31:35.786Z,22.02
2018-06-04T18:34:06.672Z,22.03
2018-06-04T18:36:36.886Z,21.81
2018-06-04T18:39:08.535Z,21.78
2018-06-04T18:41:38.306Z,21.92
2018-06-04T18:44:08.562Z,21.73
2018-06-04T18:46:38.866Z,21.58
2018-06-04T18:49:08.340Z,21.54
2018-06-04T18:51:38.194Z,21.37
2018-06-04T18:54:08.932Z,21.35
2018-06-04T18:56:39.491Z,21.35
2018-06-04T18:59:08.884Z,21.20
2018-06-04T19:01:41.533Z,21.15
2018-06-04T19:04:10.681Z,21.00
2018-06-04T19:06:40.383Z,21.10
2018-06-04T19:09:10.535Z,21.02
2018-06-04T19:11:39.650Z,20.87
2018-06-04T19:14:08.995Z,20.84
2018-06-04T19:16:38.846Z,20.78
2018-06-04T19:19:09.037Z,20.60
2018-06-04T19:21:38.374Z,20.23
2018-06-04T19:24:07.566Z,20.28
2018-06-04T19:26:36.882Z,20.28
2018-06-04T19:29:06.183Z,20.42
2018-06-04T19:31:35.355Z,20.28
2018-06-04T19:34:04.657Z,20.19
2018-06-04T19:36:35.916Z,20.33
2018-06-04T19:39:07.364Z,20.21
2018-06-04T19:41:38.598Z,20.12
2018-06-04T19:44:09.379Z,19.93
2018-06-04T19:46:38.513Z,19.91
2018-06-04T19:49:07.748Z,19.81
2018-06-04T19:51:37.252Z,19.74
2018-06-04T19:54:06.346Z,19.76
2018-06-04T19:56:36.833Z,19.57
2018-06-04T19:59:05.947Z,19.32
2018-06-04T20:01:35.111Z,19.45
2018-06-04T20:04:04.669Z,19.39
2018-06-04T20:06:34.564Z,19.38
2018-06-04T20:09:04.807Z,19.23
2018-06-04T20:11:33.994Z,19.15
2018-06-04T20:14:03.084Z,19.30
2018-06-04T20:16:32.224Z,19.01
2018-06-04T20:19:01.367Z,19.07
2018-06-04T20:21:30.487Z,19.10
2018-06-04T20:23:59.562Z,18.99
2018-06-04T20:26:28.668Z,19.01
2018-06-04T20:28:57.671Z,18.87
2018-06-04T20:31:26.862Z,18.68
2018-06-04T20:33:57.150Z,18.70
2018-06-04T20:36:26.480Z,18.80
2018-06-04T20:38:55.590Z,18.70
2018-06-04T20:41:24.669Z,18.66
2018-06-04T20:43:53.785Z,18.55
2018-06-04T20:46:22.972Z,18.49
2018-06-04T20:48:52.229Z,18.51
2018-06-04T20:51:21.268Z,18.58
2018-06-04T20:53:50.593Z,18.42
2018-06-04T20:56:20.245Z,18.41
2018-06-04T20:58:49.533Z,18.42
2018-06-04T21:01:18.686Z,18.27
2018-06-04T21:03:47.974Z,18.16
2018-06-04T21:06:17.058Z,18.28
2018-06-04T21:08:46.549Z,18.20
2018-06-04T21:11:15.550Z,18.10
2018-06-04T21:13:44.678Z,17.99
2018-06-04T21:16:13.797Z,17.94
2018-06-04T21:18:42.929Z,17.99
2018-06-04T21:21:11.953Z,17.99
2018-06-04T21:23:40.981Z,17.81
2018-06-04T21:26:09.960Z,18.16
2018-06-04T21:28:39.069Z,17.89
2018-06-04T21:31:08.246Z,17.40
2018-06-04T21:33:37.372Z,17.62
2018-06-04T21:36:06.640Z,17.49
2018-06-04T21:38:36.759Z,17.48
2018-06-04T21:41:05.795Z,17.50
2018-06-04T21:43:34.939Z,17.58
2018-06-04T21:46:03.998Z,17.58
2018-06-04T21:48:33.006Z,17.51
2018-06-04T21:51:02.037Z,17.55
2018-06-04T21:53:31.045Z,17.38
2018-06-04T21:56:00.069Z,17.22
2018-06-04T21:58:29.047Z,17.27
2018-06-04T22:00:58.123Z,17.08
2018-06-04T22:03:27.242Z,17.06
2018-06-04T22:05:56.207Z,17.02
2018-06-04T22:08:25.294Z,17.02
2018-06-04T22:10:54.806Z,16.93
2018-06-04T22:13:23.764Z,17.05
2018-06-04T22:15:52.858Z,17.01
2018-06-04T22:18:21.908Z,16.95
2018-06-04T22:20:50.887Z,16.76
2018-06-04T22:23:20.127Z,16.69
2018-06-04T22:25:49.108Z,16.79
2018-06-04T22:28:18.210Z,16.75
2018-06-04T22:30:47.336Z,16.73
2018-06-04T22:33:16.437Z,16.46
2018-06-04T22:35:45.620Z,16.44
2018-06-04T22:38:14.789Z,16.50
2018-06-04T22:40:43.799Z,16.43
2018-06-04T22:43:12.765Z,16.53
2018-06-04T22:45:41.870Z,16.53
2018-06-04T22:48:10.844Z,16.17
2018-06-04T22:50:39.905Z,16.24
2018-06-04T22:53:09.096Z,16.43
2018-06-04T22:55:38.095Z,16.27
2018-06-04T22:58:07.194Z,16.23
2018-06-04T23:00:36.178Z,16.38
2018-06-04T23:03:05.208Z,16.30
2018-06-04T23:05:34.217Z,16.21
2018-06-04T23:08:03.276Z,16.08
2018-06-04T23:10:32.291Z,15.88
2018-06-04T23:13:01.255Z,15.98
2018-06-04T23:15:30.279Z,15.98
2018-06-04T23:17:59.237Z,15.94
2018-06-04T23:20:28.340Z,15.87
2018-06-04T23:22:57.455Z,15.87
2018-06-04T23:25:26.499Z,15.77
2018-06-04T23:27:55.576Z,15.78
2018-06-04T23:30:24.517Z,15.80
2018-06-04T23:32:53.523Z,15.74
2018-06-04T23:35:22.522Z,15.79
2018-06-04T23:37:51.523Z,15.82
2018-06-04T23:40:20.723Z,15.76
2018-06-04T23:42:51.543Z,15.61
2018-06-04T23:45:20.522Z,15.69
2018-06-04T23:47:49.476Z,15.57
2018-06-04T23:50:18.500Z,15.54
2018-06-04T23:52:47.509Z,15.60
2018-06-04T23:55:16.493Z,15.52
2018-06-04T23:57:45.501Z,15.41
